sensor_id;sensor_type;location;lat;lon;timestamp;P1;durP1;ratioP1;P2;durP2;ratioP2
48552;SDS011;34335;51.566;6.994;2023-03-09T00:00:32;7.68;;;4.20;;
48552;SDS011;34335;51.566;6.994;2023-03-09T00:02:59;8.88;;;3.45;;
48552;SDS011;34335;51.566;6.994;2023-03-09T00:05:25;11.15;;;4.13;;
48552;SDS011;34335;51.566;6.994;2023-03-09T00:07:52;9.65;;;4.57;;
48552;SDS011;34335;51.566;6.994;2023-03-09T00:10:18;4.80;;;3.25;;
48552;SDS011;34335;51.566;6.994;2023-03-09T00:12:44;6.20;;;3.92;;
48552;SDS011;34335;51.566;6.994;2023-03-09T00:15:09;6.03;;;3.28;;
48552;SDS011;34335;51.566;6.994;2023-03-09T00:17:35;7.50;;;3.75;;
48552;SDS011;34335;51.566;6.994;2023-03-09T00:20:01;7.20;;;3.35;;
48552;SDS011;34335;51.566;6.994;2023-03-09T00:22:52;5.28;;;1.75;;
48552;SDS011;34335;51.566;6.994;2023-03-09T00:25:19;8.23;;;3.50;;
48552;SDS011;34335;51.566;6.994;2023-03-09T00:27:50;3.22;;;2.08;;
48552;SDS011;34335;51.566;6.994;2023-03-09T00:30:17;8.23;;;3.90;;
48552;SDS011;34335;51.566;6.994;2023-03-09T00:32:43;4.35;;;2.60;;
48552;SDS011;34335;51.566;6.994;2023-03-09T00:35:09;11.88;;;4.00;;
48552;SDS011;34335;51.566;6.994;2023-03-09T00:37:35;4.25;;;2.55;;
48552;SDS011;34335;51.566;6.994;2023-03-09T00:40:02;10.48;;;4.35;;
48552;SDS011;34335;51.566;6.994;2023-03-09T00:42:30;7.82;;;4.22;;
48552;SDS011;34335;51.566;6.994;2023-03-09T00:44:56;3.67;;;2.10;;
48552;SDS011;34335;51.566;6.994;2023-03-09T00:47:21;4.63;;;3.20;;
48552;SDS011;34335;51.566;6.994;2023-03-09T00:49:46;4.88;;;3.55;;
48552;SDS011;34335;51.566;6.994;2023-03-09T00:52:12;2.95;;;1.20;;
48552;SDS011;34335;51.566;6.994;2023-03-09T00:54:37;11.80;;;2.93;;
48552;SDS011;34335;51.566;6.994;2023-03-09T00:57:02;5.90;;;3.30;;
48552;SDS011;34335;51.566;6.994;2023-03-09T00:59:28;4.63;;;2.35;;
48552;SDS011;34335;51.566;6.994;2023-03-09T01:01:54;5.63;;;2.63;;
48552;SDS011;34335;51.566;6.994;2023-03-09T01:04:19;5.63;;;2.40;;
48552;SDS011;34335;51.566;6.994;2023-03-09T01:06:44;8.23;;;3.55;;
48552;SDS011;34335;51.566;6.994;2023-03-09T01:09:09;6.57;;;2.73;;
48552;SDS011;34335;51.566;6.994;2023-03-09T01:11:35;7.85;;;3.20;;
48552;SDS011;34335;51.566;6.994;2023-03-09T01:14:01;7.78;;;2.22;;
48552;SDS011;34335;51.566;6.994;2023-03-09T01:16:27;3.17;;;1.80;;
48552;SDS011;34335;51.566;6.994;2023-03-09T01:18:52;12.57;;;2.97;;
48552;SDS011;34335;51.566;6.994;2023-03-09T01:21:18;4.13;;;1.55;;
48552;SDS011;34335;51.566;6.994;2023-03-09T01:23:43;3.58;;;1.98;;
48552;SDS011;34335;51.566;6.994;2023-03-09T01:26:09;4.35;;;2.28;;
48552;SDS011;34335;51.566;6.994;2023-03-09T01:28:34;2.72;;;1.98;;
48552;SDS011;34335;51.566;6.994;2023-03-09T01:31:00;3.75;;;2.42;;
48552;SDS011;34335;51.566;6.994;2023-03-09T01:33:31;2.90;;;1.88;;
48552;SDS011;34335;51.566;6.994;2023-03-09T01:35:56;5.57;;;2.43;;
48552;SDS011;34335;51.566;6.994;2023-03-09T01:38:21;7.60;;;2.97;;
48552;SDS011;34335;51.566;6.994;2023-03-09T01:40:47;1.88;;;1.40;;
48552;SDS011;34335;51.566;6.994;2023-03-09T01:43:26;8.88;;;2.72;;
48552;SDS011;34335;51.566;6.994;2023-03-09T01:48:46;11.80;;;6.18;;
48552;SDS011;34335;51.566;6.994;2023-03-09T01:51:18;6.75;;;3.17;;
48552;SDS011;34335;51.566;6.994;2023-03-09T01:53:45;10.07;;;4.22;;
48552;SDS011;34335;51.566;6.994;2023-03-09T01:56:14;8.80;;;3.17;;
48552;SDS011;34335;51.566;6.994;2023-03-09T01:58:43;6.95;;;3.78;;
48552;SDS011;34335;51.566;6.994;2023-03-09T02:01:10;6.82;;;2.92;;
48552;SDS011;34335;51.566;6.994;2023-03-09T02:03:36;9.07;;;2.95;;
48552;SDS011;34335;51.566;6.994;2023-03-09T02:08:34;6.03;;;2.95;;
48552;SDS011;34335;51.566;6.994;2023-03-09T02:11:06;3.75;;;2.10;;
48552;SDS011;34335;51.566;6.994;2023-03-09T02:13:35;8.02;;;2.90;;
48552;SDS011;34335;51.566;6.994;2023-03-09T02:16:04;4.60;;;2.45;;
48552;SDS011;34335;51.566;6.994;2023-03-09T02:18:29;1.70;;;1.60;;
48552;SDS011;34335;51.566;6.994;2023-03-09T02:21:05;6.82;;;3.20;;
48552;SDS011;34335;51.566;6.994;2023-03-09T02:26:35;11.05;;;3.65;;
48552;SDS011;34335;51.566;6.994;2023-03-09T02:29:07;7.03;;;3.42;;
48552;SDS011;34335;51.566;6.994;2023-03-09T02:31:33;10.45;;;3.50;;
48552;SDS011;34335;51.566;6.994;2023-03-09T02:33:59;8.43;;;3.28;;
48552;SDS011;34335;51.566;6.994;2023-03-09T02:36:24;4.35;;;2.70;;
48552;SDS011;34335;51.566;6.994;2023-03-09T02:38:51;5.88;;;3.20;;
48552;SDS011;34335;51.566;6.994;2023-03-09T02:41:16;10.15;;;3.03;;
48552;SDS011;34335;51.566;6.994;2023-03-09T02:43:43;5.93;;;2.72;;
48552;SDS011;34335;51.566;6.994;2023-03-09T02:46:12;8.35;;;3.83;;
48552;SDS011;34335;51.566;6.994;2023-03-09T02:48:37;5.15;;;2.25;;
48552;SDS011;34335;51.566;6.994;2023-03-09T02:51:03;8.98;;;3.50;;
48552;SDS011;34335;51.566;6.994;2023-03-09T02:53:30;7.50;;;2.67;;
48552;SDS011;34335;51.566;6.994;2023-03-09T02:55:55;5.93;;;3.00;;
48552;SDS011;34335;51.566;6.994;2023-03-09T02:58:21;9.68;;;2.67;;
48552;SDS011;34335;51.566;6.994;2023-03-09T03:00:46;9.55;;;3.95;;
48552;SDS011;34335;51.566;6.994;2023-03-09T03:03:11;6.20;;;3.30;;
48552;SDS011;34335;51.566;6.994;2023-03-09T03:05:37;9.45;;;3.75;;
48552;SDS011;34335;51.566;6.994;2023-03-09T03:08:02;7.63;;;2.47;;
48552;SDS011;34335;51.566;6.994;2023-03-09T03:10:27;8.07;;;4.03;;
48552;SDS011;34335;51.566;6.994;2023-03-09T03:12:53;5.60;;;2.60;;
48552;SDS011;34335;51.566;6.994;2023-03-09T03:15:18;8.27;;;3.57;;
48552;SDS011;34335;51.566;6.994;2023-03-09T03:17:43;8.10;;;3.25;;
48552;SDS011;34335;51.566;6.994;2023-03-09T03:20:09;8.77;;;4.07;;
48552;SDS011;34335;51.566;6.994;2023-03-09T03:22:37;6.75;;;3.28;;
48552;SDS011;34335;51.566;6.994;2023-03-09T03:25:03;9.90;;;3.88;;
48552;SDS011;34335;51.566;6.994;2023-03-09T03:27:29;5.78;;;2.42;;
48552;SDS011;34335;51.566;6.994;2023-03-09T03:29:54;4.13;;;2.85;;
48552;SDS011;34335;51.566;6.994;2023-03-09T03:32:19;6.77;;;3.20;;
48552;SDS011;34335;51.566;6.994;2023-03-09T03:34:44;7.95;;;2.92;;
48552;SDS011;34335;51.566;6.994;2023-03-09T03:37:10;9.85;;;3.10;;
48552;SDS011;34335;51.566;6.994;2023-03-09T03:39:35;5.90;;;2.30;;
48552;SDS011;34335;51.566;6.994;2023-03-09T03:42:00;11.27;;;4.22;;
48552;SDS011;34335;51.566;6.994;2023-03-09T03:44:25;13.15;;;4.90;;
48552;SDS011;34335;51.566;6.994;2023-03-09T03:46:51;10.27;;;4.63;;
48552;SDS011;34335;51.566;6.994;2023-03-09T03:49:16;10.13;;;3.92;;
48552;SDS011;34335;51.566;6.994;2023-03-09T03:51:41;12.20;;;4.88;;
48552;SDS011;34335;51.566;6.994;2023-03-09T03:54:07;8.93;;;4.13;;
48552;SDS011;34335;51.566;6.994;2023-03-09T03:56:32;6.90;;;3.03;;
48552;SDS011;34335;51.566;6.994;2023-03-09T03:58:57;8.38;;;3.45;;
48552;SDS011;34335;51.566;6.994;2023-03-09T04:01:23;8.90;;;4.20;;
48552;SDS011;34335;51.566;6.994;2023-03-09T04:03:48;11.38;;;3.72;;
48552;SDS011;34335;51.566;6.994;2023-03-09T04:06:13;12.93;;;4.45;;
48552;SDS011;34335;51.566;6.994;2023-03-09T04:08:39;13.03;;;5.07;;
48552;SDS011;34335;51.566;6.994;2023-03-09T04:11:05;12.32;;;5.03;;
48552;SDS011;34335;51.566;6.994;2023-03-09T04:13:31;6.70;;;3.22;;
48552;SDS011;34335;51.566;6.994;2023-03-09T04:15:57;11.77;;;4.65;;
48552;SDS011;34335;51.566;6.994;2023-03-09T04:18:22;6.25;;;2.72;;
48552;SDS011;34335;51.566;6.994;2023-03-09T04:20:47;11.18;;;3.85;;
48552;SDS011;34335;51.566;6.994;2023-03-09T04:23:12;13.97;;;5.27;;
48552;SDS011;34335;51.566;6.994;2023-03-09T04:25:38;7.78;;;2.95;;
48552;SDS011;34335;51.566;6.994;2023-03-09T04:28:03;13.23;;;4.95;;
48552;SDS011;34335;51.566;6.994;2023-03-09T04:30:29;13.93;;;4.43;;
48552;SDS011;34335;51.566;6.994;2023-03-09T04:32:55;7.68;;;3.25;;
48552;SDS011;34335;51.566;6.994;2023-03-09T04:35:20;9.98;;;4.70;;
48552;SDS011;34335;51.566;6.994;2023-03-09T04:37:46;12.63;;;4.38;;
48552;SDS011;34335;51.566;6.994;2023-03-09T04:40:12;9.95;;;3.95;;
48552;SDS011;34335;51.566;6.994;2023-03-09T04:42:38;9.07;;;3.45;;
48552;SDS011;34335;51.566;6.994;2023-03-09T04:45:03;7.75;;;2.90;;
48552;SDS011;34335;51.566;6.994;2023-03-09T04:47:30;13.55;;;5.30;;
48552;SDS011;34335;51.566;6.994;2023-03-09T04:49:56;7.60;;;2.88;;
48552;SDS011;34335;51.566;6.994;2023-03-09T04:52:21;10.85;;;4.78;;
48552;SDS011;34335;51.566;6.994;2023-03-09T04:54:47;12.45;;;5.13;;
48552;SDS011;34335;51.566;6.994;2023-03-09T04:57:13;9.75;;;4.78;;
48552;SDS011;34335;51.566;6.994;2023-03-09T04:59:38;12.52;;;4.68;;
48552;SDS011;34335;51.566;6.994;2023-03-09T05:02:04;9.02;;;4.20;;
48552;SDS011;34335;51.566;6.994;2023-03-09T05:04:29;8.20;;;3.38;;
48552;SDS011;34335;51.566;6.994;2023-03-09T05:06:54;9.98;;;5.55;;
48552;SDS011;34335;51.566;6.994;2023-03-09T05:09:20;9.90;;;4.20;;
48552;SDS011;34335;51.566;6.994;2023-03-09T05:11:45;9.48;;;3.33;;
48552;SDS011;34335;51.566;6.994;2023-03-09T05:14:11;10.23;;;5.45;;
48552;SDS011;34335;51.566;6.994;2023-03-09T05:16:36;8.30;;;4.30;;
48552;SDS011;34335;51.566;6.994;2023-03-09T05:19:01;6.78;;;3.22;;
48552;SDS011;34335;51.566;6.994;2023-03-09T05:21:27;14.63;;;5.45;;
48552;SDS011;34335;51.566;6.994;2023-03-09T05:23:52;12.87;;;4.57;;
48552;SDS011;34335;51.566;6.994;2023-03-09T05:26:17;8.82;;;4.18;;
48552;SDS011;34335;51.566;6.994;2023-03-09T05:28:42;8.80;;;3.83;;
48552;SDS011;34335;51.566;6.994;2023-03-09T05:31:08;9.15;;;3.60;;
48552;SDS011;34335;51.566;6.994;2023-03-09T05:33:35;16.20;;;6.68;;
48552;SDS011;34335;51.566;6.994;2023-03-09T05:36:00;12.23;;;5.30;;
48552;SDS011;34335;51.566;6.994;2023-03-09T05:38:26;6.82;;;3.97;;
48552;SDS011;34335;51.566;6.994;2023-03-09T05:40:51;12.30;;;5.53;;
48552;SDS011;34335;51.566;6.994;2023-03-09T05:43:16;14.80;;;3.08;;
48552;SDS011;34335;51.566;6.994;2023-03-09T05:45:42;17.58;;;6.38;;
48552;SDS011;34335;51.566;6.994;2023-03-09T05:48:07;14.20;;;6.05;;
48552;SDS011;34335;51.566;6.994;2023-03-09T05:50:32;17.15;;;4.53;;
48552;SDS011;34335;51.566;6.994;2023-03-09T05:52:58;8.57;;;4.43;;
48552;SDS011;34335;51.566;6.994;2023-03-09T05:55:23;13.80;;;5.15;;
48552;SDS011;34335;51.566;6.994;2023-03-09T05:57:49;16.20;;;5.38;;
48552;SDS011;34335;51.566;6.994;2023-03-09T06:00:14;14.48;;;4.93;;
48552;SDS011;34335;51.566;6.994;2023-03-09T06:02:41;11.85;;;5.57;;
48552;SDS011;34335;51.566;6.994;2023-03-09T06:05:06;10.52;;;5.32;;
48552;SDS011;34335;51.566;6.994;2023-03-09T06:07:32;10.50;;;5.30;;
48552;SDS011;34335;51.566;6.994;2023-03-09T06:09:57;11.20;;;4.55;;
48552;SDS011;34335;51.566;6.994;2023-03-09T06:12:23;8.93;;;3.50;;
48552;SDS011;34335;51.566;6.994;2023-03-09T06:14:48;16.45;;;5.65;;
48552;SDS011;34335;51.566;6.994;2023-03-09T06:17:16;12.57;;;4.47;;
48552;SDS011;34335;51.566;6.994;2023-03-09T06:19:41;20.67;;;5.43;;
48552;SDS011;34335;51.566;6.994;2023-03-09T06:22:07;16.40;;;6.43;;
48552;SDS011;34335;51.566;6.994;2023-03-09T06:24:32;10.43;;;4.83;;
48552;SDS011;34335;51.566;6.994;2023-03-09T06:26:58;15.40;;;5.15;;
48552;SDS011;34335;51.566;6.994;2023-03-09T06:29:24;10.02;;;3.45;;
48552;SDS011;34335;51.566;6.994;2023-03-09T06:31:52;16.42;;;5.43;;
48552;SDS011;34335;51.566;6.994;2023-03-09T06:34:17;14.90;;;4.80;;
48552;SDS011;34335;51.566;6.994;2023-03-09T06:36:43;14.35;;;5.15;;
48552;SDS011;34335;51.566;6.994;2023-03-09T06:39:08;13.20;;;5.47;;
48552;SDS011;34335;51.566;6.994;2023-03-09T06:41:35;11.63;;;4.03;;
48552;SDS011;34335;51.566;6.994;2023-03-09T06:44:00;11.63;;;4.53;;
48552;SDS011;34335;51.566;6.994;2023-03-09T06:46:26;11.27;;;4.05;;
48552;SDS011;34335;51.566;6.994;2023-03-09T06:48:51;10.18;;;3.80;;
48552;SDS011;34335;51.566;6.994;2023-03-09T06:51:16;15.30;;;5.13;;
48552;SDS011;34335;51.566;6.994;2023-03-09T06:53:44;13.43;;;5.28;;
48552;SDS011;34335;51.566;6.994;2023-03-09T06:56:10;18.15;;;6.95;;
48552;SDS011;34335;51.566;6.994;2023-03-09T06:58:37;15.13;;;5.47;;
48552;SDS011;34335;51.566;6.994;2023-03-09T07:01:06;12.30;;;5.43;;
48552;SDS011;34335;51.566;6.994;2023-03-09T07:03:32;16.33;;;6.20;;
48552;SDS011;34335;51.566;6.994;2023-03-09T07:05:57;16.10;;;6.30;;
48552;SDS011;34335;51.566;6.994;2023-03-09T07:08:23;13.63;;;4.85;;
48552;SDS011;34335;51.566;6.994;2023-03-09T07:10:48;9.10;;;3.85;;
48552;SDS011;34335;51.566;6.994;2023-03-09T07:13:14;16.88;;;5.25;;
48552;SDS011;34335;51.566;6.994;2023-03-09T07:15:40;11.77;;;4.78;;
48552;SDS011;34335;51.566;6.994;2023-03-09T07:18:05;14.98;;;5.50;;
48552;SDS011;34335;51.566;6.994;2023-03-09T07:20:30;16.92;;;4.75;;
48552;SDS011;34335;51.566;6.994;2023-03-09T07:22:56;10.60;;;4.10;;
48552;SDS011;34335;51.566;6.994;2023-03-09T07:25:21;11.70;;;4.20;;
48552;SDS011;34335;51.566;6.994;2023-03-09T07:27:47;13.50;;;6.78;;
48552;SDS011;34335;51.566;6.994;2023-03-09T07:30:13;11.32;;;5.45;;
48552;SDS011;34335;51.566;6.994;2023-03-09T07:32:39;7.43;;;4.07;;
48552;SDS011;34335;51.566;6.994;2023-03-09T07:35:04;11.02;;;5.35;;
48552;SDS011;34335;51.566;6.994;2023-03-09T07:37:30;8.35;;;4.45;;
48552;SDS011;34335;51.566;6.994;2023-03-09T07:39:55;12.20;;;3.53;;
48552;SDS011;34335;51.566;6.994;2023-03-09T07:42:21;11.07;;;4.70;;
48552;SDS011;34335;51.566;6.994;2023-03-09T07:44:46;11.00;;;4.85;;
48552;SDS011;34335;51.566;6.994;2023-03-09T07:47:11;14.17;;;4.90;;
48552;SDS011;34335;51.566;6.994;2023-03-09T07:49:36;11.88;;;5.43;;
48552;SDS011;34335;51.566;6.994;2023-03-09T07:52:02;12.38;;;4.30;;
48552;SDS011;34335;51.566;6.994;2023-03-09T07:54:27;12.32;;;5.00;;
48552;SDS011;34335;51.566;6.994;2023-03-09T07:56:52;9.77;;;5.13;;
48552;SDS011;34335;51.566;6.994;2023-03-09T07:59:18;14.05;;;5.53;;
48552;SDS011;34335;51.566;6.994;2023-03-09T08:01:44;11.77;;;4.25;;
48552;SDS011;34335;51.566;6.994;2023-03-09T08:04:09;11.75;;;5.32;;
48552;SDS011;34335;51.566;6.994;2023-03-09T08:06:37;16.13;;;6.13;;
48552;SDS011;34335;51.566;6.994;2023-03-09T08:09:04;17.35;;;5.90;;
48552;SDS011;34335;51.566;6.994;2023-03-09T08:11:31;9.05;;;4.88;;
48552;SDS011;34335;51.566;6.994;2023-03-09T08:13:56;14.27;;;6.18;;
48552;SDS011;34335;51.566;6.994;2023-03-09T08:16:22;16.20;;;7.55;;
48552;SDS011;34335;51.566;6.994;2023-03-09T08:18:47;14.15;;;5.10;;
48552;SDS011;34335;51.566;6.994;2023-03-09T08:21:13;9.18;;;4.43;;
48552;SDS011;34335;51.566;6.994;2023-03-09T08:23:39;16.48;;;5.07;;
48552;SDS011;34335;51.566;6.994;2023-03-09T08:26:08;7.85;;;3.53;;
48552;SDS011;34335;51.566;6.994;2023-03-09T08:28:38;14.45;;;6.15;;
48552;SDS011;34335;51.566;6.994;2023-03-09T08:31:04;13.93;;;5.55;;
48552;SDS011;34335;51.566;6.994;2023-03-09T08:33:30;18.92;;;6.55;;
48552;SDS011;34335;51.566;6.994;2023-03-09T08:35:56;9.77;;;4.13;;
48552;SDS011;34335;51.566;6.994;2023-03-09T08:38:21;20.25;;;6.13;;
48552;SDS011;34335;51.566;6.994;2023-03-09T08:40:47;16.02;;;5.32;;
48552;SDS011;34335;51.566;6.994;2023-03-09T08:43:12;16.65;;;6.25;;
48552;SDS011;34335;51.566;6.994;2023-03-09T08:45:38;15.25;;;5.82;;
48552;SDS011;34335;51.566;6.994;2023-03-09T08:48:03;12.55;;;5.30;;
48552;SDS011;34335;51.566;6.994;2023-03-09T08:50:29;14.40;;;5.50;;
48552;SDS011;34335;51.566;6.994;2023-03-09T08:52:54;11.95;;;5.05;;
48552;SDS011;34335;51.566;6.994;2023-03-09T08:55:20;18.85;;;6.95;;
48552;SDS011;34335;51.566;6.994;2023-03-09T08:57:46;18.25;;;6.32;;
48552;SDS011;34335;51.566;6.994;2023-03-09T09:00:11;11.60;;;5.40;;
48552;SDS011;34335;51.566;6.994;2023-03-09T09:02:37;22.30;;;9.02;;
48552;SDS011;34335;51.566;6.994;2023-03-09T09:05:03;15.27;;;5.63;;
48552;SDS011;34335;51.566;6.994;2023-03-09T09:07:29;13.15;;;5.78;;
48552;SDS011;34335;51.566;6.994;2023-03-09T09:09:54;16.70;;;6.97;;
48552;SDS011;34335;51.566;6.994;2023-03-09T09:12:20;13.63;;;6.70;;
48552;SDS011;34335;51.566;6.994;2023-03-09T09:14:46;15.38;;;6.88;;
48552;SDS011;34335;51.566;6.994;2023-03-09T09:17:11;18.08;;;7.07;;
48552;SDS011;34335;51.566;6.994;2023-03-09T09:19:37;21.30;;;6.70;;
48552;SDS011;34335;51.566;6.994;2023-03-09T09:22:04;19.42;;;7.90;;
48552;SDS011;34335;51.566;6.994;2023-03-09T09:24:30;14.30;;;4.53;;
48552;SDS011;34335;51.566;6.994;2023-03-09T09:26:57;23.27;;;6.55;;
48552;SDS011;34335;51.566;6.994;2023-03-09T09:29:23;19.25;;;6.45;;
48552;SDS011;34335;51.566;6.994;2023-03-09T09:31:48;16.52;;;6.30;;
48552;SDS011;34335;51.566;6.994;2023-03-09T09:34:14;14.85;;;6.22;;
48552;SDS011;34335;51.566;6.994;2023-03-09T09:36:42;21.33;;;6.40;;
48552;SDS011;34335;51.566;6.994;2023-03-09T09:39:08;14.73;;;5.30;;
48552;SDS011;34335;51.566;6.994;2023-03-09T09:41:39;17.27;;;5.88;;
48552;SDS011;34335;51.566;6.994;2023-03-09T09:44:10;16.10;;;5.57;;
48552;SDS011;34335;51.566;6.994;2023-03-09T09:46:39;17.73;;;6.47;;
48552;SDS011;34335;51.566;6.994;2023-03-09T09:49:05;15.32;;;6.40;;
48552;SDS011;34335;51.566;6.994;2023-03-09T09:51:54;13.98;;;5.93;;
48552;SDS011;34335;51.566;6.994;2023-03-09T09:57:15;12.77;;;6.88;;
48552;SDS011;34335;51.566;6.994;2023-03-09T10:02:35;17.55;;;6.05;;
48552;SDS011;34335;51.566;6.994;2023-03-09T10:05:14;16.90;;;6.82;;
48552;SDS011;34335;51.566;6.994;2023-03-09T10:07:44;16.70;;;5.28;;
48552;SDS011;34335;51.566;6.994;2023-03-09T10:10:28;24.52;;;7.60;;
48552;SDS011;34335;51.566;6.994;2023-03-09T10:12:57;10.63;;;5.68;;
48552;SDS011;34335;51.566;6.994;2023-03-09T10:15:29;13.77;;;5.80;;
48552;SDS011;34335;51.566;6.994;2023-03-09T10:17:58;20.15;;;8.43;;
48552;SDS011;34335;51.566;6.994;2023-03-09T10:20:39;21.98;;;7.95;;
48552;SDS011;34335;51.566;6.994;2023-03-09T10:23:20;17.13;;;6.95;;
48552;SDS011;34335;51.566;6.994;2023-03-09T10:25:50;24.13;;;7.47;;
48552;SDS011;34335;51.566;6.994;2023-03-09T10:28:23;20.65;;;5.68;;
48552;SDS011;34335;51.566;6.994;2023-03-09T10:30:57;19.20;;;8.18;;
48552;SDS011;34335;51.566;6.994;2023-03-09T10:33:43;19.27;;;7.13;;
48552;SDS011;34335;51.566;6.994;2023-03-09T10:38:40;17.42;;;6.57;;
48552;SDS011;34335;51.566;6.994;2023-03-09T10:41:17;18.00;;;6.95;;
48552;SDS011;34335;51.566;6.994;2023-03-09T10:43:44;16.40;;;6.72;;
48552;SDS011;34335;51.566;6.994;2023-03-09T10:46:20;16.05;;;6.20;;
48552;SDS011;34335;51.566;6.994;2023-03-09T10:48:50;20.58;;;6.65;;
48552;SDS011;34335;51.566;6.994;2023-03-09T10:51:41;23.60;;;6.70;;
48552;SDS011;34335;51.566;6.994;2023-03-09T10:57:20;16.83;;;6.20;;
48552;SDS011;34335;51.566;6.994;2023-03-09T10:59:54;21.38;;;7.70;;
48552;SDS011;34335;51.566;6.994;2023-03-09T11:02:30;15.73;;;7.30;;
48552;SDS011;34335;51.566;6.994;2023-03-09T11:04:56;18.98;;;6.88;;
48552;SDS011;34335;51.566;6.994;2023-03-09T11:07:23;17.42;;;7.07;;
48552;SDS011;34335;51.566;6.994;2023-03-09T11:09:54;25.05;;;7.55;;
48552;SDS011;34335;51.566;6.994;2023-03-09T11:12:36;15.65;;;6.80;;
48552;SDS011;34335;51.566;6.994;2023-03-09T11:15:49;22.27;;;8.45;;
48552;SDS011;34335;51.566;6.994;2023-03-09T11:18:00;18.73;;;7.28;;
48552;SDS011;34335;51.566;6.994;2023-03-09T11:26:01;15.95;;;7.90;;
48552;SDS011;34335;51.566;6.994;2023-03-09T11:28:49;20.77;;;7.82;;
48552;SDS011;34335;51.566;6.994;2023-03-09T11:31:22;21.45;;;7.93;;
48552;SDS011;34335;51.566;6.994;2023-03-09T11:33:50;20.73;;;6.38;;
48552;SDS011;34335;51.566;6.994;2023-03-09T11:36:20;26.00;;;7.80;;
48552;SDS011;34335;51.566;6.994;2023-03-09T11:38:49;18.27;;;7.10;;
48552;SDS011;34335;51.566;6.994;2023-03-09T11:41:19;20.75;;;8.27;;
48552;SDS011;34335;51.566;6.994;2023-03-09T11:43:51;22.05;;;7.22;;
48552;SDS011;34335;51.566;6.994;2023-03-09T11:46:20;20.90;;;6.68;;
48552;SDS011;34335;51.566;6.994;2023-03-09T11:48:47;18.58;;;6.45;;
48552;SDS011;34335;51.566;6.994;2023-03-09T11:51:28;14.65;;;6.10;;
48552;SDS011;34335;51.566;6.994;2023-03-09T11:56:42;31.27;;;9.15;;
48552;SDS011;34335;51.566;6.994;2023-03-09T11:59:20;16.73;;;6.72;;
48552;SDS011;34335;51.566;6.994;2023-03-09T12:02:33;20.08;;;7.55;;
48552;SDS011;34335;51.566;6.994;2023-03-09T12:04:39;14.00;;;6.47;;
48552;SDS011;34335;51.566;6.994;2023-03-09T12:07:12;19.02;;;6.63;;
48552;SDS011;34335;51.566;6.994;2023-03-09T12:12:31;25.05;;;9.25;;
48552;SDS011;34335;51.566;6.994;2023-03-09T12:17:59;15.68;;;5.38;;
48552;SDS011;34335;51.566;6.994;2023-03-09T12:22:52;17.23;;;7.77;;
48552;SDS011;34335;51.566;6.994;2023-03-09T12:25:19;18.85;;;6.47;;
48552;SDS011;34335;51.566;6.994;2023-03-09T12:27:48;14.88;;;6.32;;
48552;SDS011;34335;51.566;6.994;2023-03-09T12:30:22;18.25;;;6.55;;
48552;SDS011;34335;51.566;6.994;2023-03-09T12:32:52;33.67;;;8.68;;
48552;SDS011;34335;51.566;6.994;2023-03-09T12:40:44;29.00;;;8.32;;
48552;SDS011;34335;51.566;6.994;2023-03-09T12:45:38;19.25;;;7.53;;
48552;SDS011;34335;51.566;6.994;2023-03-09T12:48:04;22.45;;;8.45;;
48552;SDS011;34335;51.566;6.994;2023-03-09T13:03:16;16.65;;;7.43;;
48552;SDS011;34335;51.566;6.994;2023-03-09T13:05:47;22.10;;;7.88;;
48552;SDS011;34335;51.566;6.994;2023-03-09T13:08:33;17.92;;;6.70;;
48552;SDS011;34335;51.566;6.994;2023-03-09T13:13:45;17.00;;;6.80;;
48552;SDS011;34335;51.566;6.994;2023-03-09T13:21:39;20.55;;;8.50;;
48552;SDS011;34335;51.566;6.994;2023-03-09T13:24:19;17.27;;;7.78;;
48552;SDS011;34335;51.566;6.994;2023-03-09T13:27:04;13.15;;;5.72;;
48552;SDS011;34335;51.566;6.994;2023-03-09T13:29:30;19.35;;;6.53;;
48552;SDS011;34335;51.566;6.994;2023-03-09T13:31:58;17.55;;;8.02;;
48552;SDS011;34335;51.566;6.994;2023-03-09T13:34:27;28.33;;;9.18;;
48552;SDS011;34335;51.566;6.994;2023-03-09T13:36:59;16.55;;;7.50;;
48552;SDS011;34335;51.566;6.994;2023-03-09T13:39:27;15.32;;;7.55;;
48552;SDS011;34335;51.566;6.994;2023-03-09T13:41:52;16.48;;;7.15;;
48552;SDS011;34335;51.566;6.994;2023-03-09T13:44:20;24.25;;;8.13;;
48552;SDS011;34335;51.566;6.994;2023-03-09T13:46:49;20.45;;;7.95;;
48552;SDS011;34335;51.566;6.994;2023-03-09T13:49:21;15.40;;;7.32;;
48552;SDS011;34335;51.566;6.994;2023-03-09T13:51:51;18.55;;;7.70;;
48552;SDS011;34335;51.566;6.994;2023-03-09T13:56:58;25.45;;;6.88;;
48552;SDS011;34335;51.566;6.994;2023-03-09T13:59:27;26.58;;;7.22;;
48552;SDS011;34335;51.566;6.994;2023-03-09T14:02:02;23.63;;;7.82;;
48552;SDS011;34335;51.566;6.994;2023-03-09T14:04:28;20.42;;;9.55;;
48552;SDS011;34335;51.566;6.994;2023-03-09T14:06:54;25.10;;;6.47;;
48552;SDS011;34335;51.566;6.994;2023-03-09T14:11:58;19.05;;;6.65;;
48552;SDS011;34335;51.566;6.994;2023-03-09T14:14:24;16.85;;;7.70;;
48552;SDS011;34335;51.566;6.994;2023-03-09T14:16:51;20.17;;;7.57;;
48552;SDS011;34335;51.566;6.994;2023-03-09T14:19:19;14.27;;;6.18;;
48552;SDS011;34335;51.566;6.994;2023-03-09T14:21:50;24.45;;;8.85;;
48552;SDS011;34335;51.566;6.994;2023-03-09T14:26:42;20.53;;;8.50;;
48552;SDS011;34335;51.566;6.994;2023-03-09T14:31:38;14.48;;;6.80;;
48552;SDS011;34335;51.566;6.994;2023-03-09T14:34:05;21.80;;;7.23;;
48552;SDS011;34335;51.566;6.994;2023-03-09T14:36:48;20.67;;;7.47;;
48552;SDS011;34335;51.566;6.994;2023-03-09T14:39:27;27.33;;;8.25;;
48552;SDS011;34335;51.566;6.994;2023-03-09T14:47:00;18.05;;;6.60;;
48552;SDS011;34335;51.566;6.994;2023-03-09T14:49:25;16.27;;;7.03;;
48552;SDS011;34335;51.566;6.994;2023-03-09T14:51:51;17.30;;;7.17;;
48552;SDS011;34335;51.566;6.994;2023-03-09T14:54:16;19.52;;;7.25;;
48552;SDS011;34335;51.566;6.994;2023-03-09T14:56:45;16.20;;;7.05;;
48552;SDS011;34335;51.566;6.994;2023-03-09T15:01:44;13.25;;;6.07;;
48552;SDS011;34335;51.566;6.994;2023-03-09T15:04:17;16.25;;;7.03;;
48552;SDS011;34335;51.566;6.994;2023-03-09T15:06:43;10.70;;;5.55;;
48552;SDS011;34335;51.566;6.994;2023-03-09T15:09:09;14.85;;;6.38;;
48552;SDS011;34335;51.566;6.994;2023-03-09T15:11:35;22.27;;;6.53;;
48552;SDS011;34335;51.566;6.994;2023-03-09T15:14:02;14.82;;;5.78;;
48552;SDS011;34335;51.566;6.994;2023-03-09T15:16:43;11.80;;;4.93;;
48552;SDS011;34335;51.566;6.994;2023-03-09T15:19:12;12.50;;;4.37;;
48552;SDS011;34335;51.566;6.994;2023-03-09T15:21:41;11.05;;;5.25;;
48552;SDS011;34335;51.566;6.994;2023-03-09T15:24:06;18.53;;;6.83;;
48552;SDS011;34335;51.566;6.994;2023-03-09T15:26:33;13.77;;;6.13;;
48552;SDS011;34335;51.566;6.994;2023-03-09T15:28:58;16.07;;;5.77;;
48552;SDS011;34335;51.566;6.994;2023-03-09T15:31:23;13.57;;;6.00;;
48552;SDS011;34335;51.566;6.994;2023-03-09T15:33:48;11.30;;;4.07;;
48552;SDS011;34335;51.566;6.994;2023-03-09T15:36:14;16.10;;;5.93;;
48552;SDS011;34335;51.566;6.994;2023-03-09T15:38:39;20.60;;;8.00;;
48552;SDS011;34335;51.566;6.994;2023-03-09T15:41:05;14.33;;;5.53;;
48552;SDS011;34335;51.566;6.994;2023-03-09T15:43:31;15.32;;;5.00;;
48552;SDS011;34335;51.566;6.994;2023-03-09T15:45:56;18.23;;;6.67;;
48552;SDS011;34335;51.566;6.994;2023-03-09T15:48:22;14.10;;;6.17;;
48552;SDS011;34335;51.566;6.994;2023-03-09T15:50:50;10.80;;;4.30;;
48552;SDS011;34335;51.566;6.994;2023-03-09T15:53:16;13.75;;;4.57;;
48552;SDS011;34335;51.566;6.994;2023-03-09T15:55:41;11.82;;;4.93;;
48552;SDS011;34335;51.566;6.994;2023-03-09T15:58:07;12.32;;;6.30;;
48552;SDS011;34335;51.566;6.994;2023-03-09T16:00:32;16.98;;;6.03;;
48552;SDS011;34335;51.566;6.994;2023-03-09T16:03:01;11.57;;;4.97;;